createdAt,value
2022-10-02T00:00:49.041Z,0.74
2022-10-02T00:02:47.068Z,0.74
2022-10-02T00:04:46.631Z,0.74
2022-10-02T00:06:47.344Z,0.74
2022-10-02T00:08:47.079Z,0.74
2022-10-02T00:10:46.482Z,0.74
2022-10-02T00:12:46.879Z,0.74
2022-10-02T00:14:46.635Z,0.74
2022-10-02T00:16:47.960Z,0.74
2022-10-02T00:18:46.352Z,0.74
2022-10-02T00:20:46.567Z,0.74
2022-10-02T00:22:46.953Z,0.74
2022-10-02T00:24:46.313Z,0.74
2022-10-02T00:26:46.973Z,0.74
2022-10-02T00:28:46.977Z,0.74
2022-10-02T00:30:47.162Z,0.74
2022-10-02T00:32:46.732Z,0.74
2022-10-02T00:34:49.249Z,0.74
2022-10-02T00:36:46.729Z,0.74
2022-10-02T00:38:46.557Z,0.74
2022-10-02T00:40:46.647Z,0.74
2022-10-02T00:42:47.172Z,0.74
2022-10-02T00:44:46.521Z,0.74
2022-10-02T00:46:47.470Z,0.74
2022-10-02T00:48:46.744Z,0.74
2022-10-02T00:50:47.276Z,0.74
2022-10-02T00:52:47.108Z,0.74
2022-10-02T00:54:47.117Z,0.74
2022-10-02T00:56:46.701Z,0.74
2022-10-02T00:58:46.951Z,0.74
2022-10-02T01:00:48.498Z,0.74
2022-10-02T01:02:47.033Z,0.74
2022-10-02T01:04:46.696Z,0.74
2022-10-02T01:06:47.309Z,0.74
2022-10-02T01:08:46.662Z,0.74
2022-10-02T01:10:46.279Z,0.74
2022-10-02T01:12:46.968Z,0.74
2022-10-02T01:14:47.005Z,0.74
2022-10-02T01:16:47.430Z,0.74
2022-10-02T01:18:46.326Z,0.74
2022-10-02T01:20:46.518Z,0.74
2022-10-02T01:22:46.349Z,0.74
2022-10-02T01:24:46.555Z,0.74
2022-10-02T01:26:47.159Z,0.74
2022-10-02T01:28:47.251Z,0.74
2022-10-02T01:30:46.533Z,0.74
2022-10-02T01:32:46.456Z,0.74
2022-10-02T01:34:46.469Z,0.74
2022-10-02T01:36:46.751Z,0.74
2022-10-02T01:38:46.515Z,0.74
2022-10-02T01:40:46.835Z,0.74
2022-10-02T01:42:46.249Z,0.74
2022-10-02T01:44:46.982Z,0.74
2022-10-02T01:46:47.953Z,0.74
2022-10-02T01:48:46.450Z,0.74
2022-10-02T01:50:46.658Z,0.74
2022-10-02T01:52:46.646Z,0.74
2022-10-02T01:54:46.253Z,0.74
2022-10-02T01:56:47.523Z,0.74
2022-10-02T01:58:47.154Z,0.74
2022-10-02T02:00:49.909Z,0.74
2022-10-02T02:02:46.930Z,0.74
2022-10-02T02:04:46.931Z,0.74
2022-10-02T02:06:46.787Z,0.74
2022-10-02T02:08:46.726Z,0.74
2022-10-02T02:10:46.743Z,0.74
2022-10-02T02:12:47.067Z,0.74
2022-10-02T02:14:46.917Z,0.74
2022-10-02T02:16:47.785Z,6.75
2022-10-02T02:18:47.191Z,6.75
2022-10-02T02:20:46.942Z,6.75
2022-10-02T02:22:47.010Z,1.17
2022-10-02T02:24:46.601Z,1.17
2022-10-02T02:26:47.810Z,1.17
2022-10-02T02:28:46.710Z,0.89
2022-10-02T02:30:46.865Z,0.89
2022-10-02T02:32:47.143Z,0.89
2022-10-02T02:34:46.774Z,0.84
2022-10-02T02:36:47.576Z,0.84
2022-10-02T02:38:46.274Z,0.84
2022-10-02T02:40:46.339Z,0.79
2022-10-02T02:42:51.554Z,0.79
2022-10-02T02:44:47.249Z,0.79
2022-10-02T02:46:47.883Z,0.79
2022-10-02T02:48:46.691Z,0.79
2022-10-02T02:50:46.966Z,0.79
2022-10-02T02:52:46.480Z,0.79
2022-10-02T02:54:47.222Z,0.79
2022-10-02T02:56:47.040Z,0.79
2022-10-02T02:58:46.680Z,0.79
2022-10-02T03:00:49.790Z,0.79
2022-10-02T03:02:47.774Z,0.79
2022-10-02T03:04:46.402Z,0.79
2022-10-02T03:06:47.301Z,0.79
2022-10-02T03:08:46.420Z,0.79
2022-10-02T03:10:46.860Z,0.79
2022-10-02T03:12:46.360Z,0.79
2022-10-02T03:14:47.098Z,0.79
2022-10-02T03:16:47.613Z,0.79
2022-10-02T03:18:46.488Z,0.79
2022-10-02T03:20:46.640Z,0.79
2022-10-02T03:22:46.985Z,0.79
2022-10-02T03:24:46.247Z,0.79
2022-10-02T03:26:46.948Z,0.79
2022-10-02T03:29:13.621Z,0.79
2022-10-02T03:30:46.380Z,0.79
2022-10-02T03:32:46.861Z,0.79
2022-10-02T03:34:46.347Z,0.79
2022-10-02T03:36:47.164Z,0.79
2022-10-02T03:38:56.892Z,0.79
2022-10-02T03:40:46.714Z,0.79
2022-10-02T03:42:47.183Z,0.79
2022-10-02T03:44:46.516Z,0.79
2022-10-02T03:46:47.571Z,0.79
2022-10-02T03:48:46.267Z,0.79
2022-10-02T03:50:47.922Z,0.79
2022-10-02T03:52:46.453Z,25.23
2022-10-02T03:54:46.635Z,7.18
2022-10-02T03:56:47.256Z,7.18
2022-10-02T03:58:46.433Z,7.18
2022-10-02T04:00:49.734Z,7.18
2022-10-02T04:02:46.829Z,7.18
2022-10-02T04:04:47.065Z,7.18
2022-10-02T04:06:46.819Z,7.18
2022-10-02T04:08:46.740Z,7.18
2022-10-02T04:10:46.633Z,7.18
2022-10-02T04:12:47.170Z,7.18
2022-10-02T04:14:47.010Z,7.18
2022-10-02T04:16:47.503Z,7.18
2022-10-02T04:18:47.213Z,7.18
2022-10-02T04:20:46.992Z,7.18
2022-10-02T04:22:46.400Z,7.18
2022-10-02T04:24:46.546Z,7.18
2022-10-02T04:26:47.324Z,7.18
2022-10-02T04:28:46.871Z,7.18
2022-10-02T04:30:46.966Z,7.18
2022-10-02T04:32:46.820Z,7.18
2022-10-02T04:34:46.643Z,7.18
2022-10-02T04:36:47.281Z,7.18
2022-10-02T04:38:46.520Z,7.18
2022-10-02T04:40:46.508Z,7.18
2022-10-02T04:42:46.559Z,7.18
2022-10-02T04:44:46.736Z,7.18
2022-10-02T04:46:47.520Z,7.18
2022-10-02T04:48:46.847Z,7.18
2022-10-02T04:50:46.619Z,7.18
2022-10-02T04:52:47.066Z,7.18
2022-10-02T04:54:46.932Z,7.18
2022-10-02T04:56:47.355Z,7.18
2022-10-02T04:58:46.830Z,7.18
2022-10-02T05:00:49.632Z,7.18
2022-10-02T05:02:47.084Z,7.18
2022-10-02T05:04:49.423Z,7.18
2022-10-02T05:06:47.767Z,7.18
2022-10-02T05:08:47.359Z,7.18
2022-10-02T05:10:47.328Z,7.18
2022-10-02T05:12:46.972Z,7.18
2022-10-02T05:14:47.239Z,7.18
2022-10-02T05:16:48.067Z,7.18
2022-10-02T05:18:51.793Z,7.18
2022-10-02T05:20:46.735Z,7.18
2022-10-02T05:22:46.829Z,7.18
2022-10-02T05:24:47.002Z,7.18
2022-10-02T05:26:48.828Z,7.18
2022-10-02T05:28:46.736Z,7.18
2022-10-02T05:30:47.016Z,7.18
2022-10-02T05:32:46.490Z,7.18
2022-10-02T05:34:47.191Z,7.18
2022-10-02T05:36:47.563Z,7.18
2022-10-02T05:38:46.618Z,7.18
2022-10-02T05:40:47.069Z,7.18
2022-10-02T05:42:51.342Z,7.18
2022-10-02T05:44:46.816Z,7.18
2022-10-02T05:46:47.078Z,7.18
2022-10-02T05:48:46.636Z,7.18
2022-10-02T05:50:46.644Z,7.18
2022-10-02T05:52:47.019Z,7.18
2022-10-02T05:54:46.500Z,7.18
2022-10-02T05:56:47.299Z,7.18
2022-10-02T05:58:46.413Z,7.18
2022-10-02T06:00:50.403Z,7.18
2022-10-02T06:02:50.912Z,7.18
2022-10-02T06:04:46.599Z,7.18
2022-10-02T06:06:47.454Z,7.18
2022-10-02T06:08:47.131Z,7.18
2022-10-02T06:10:47.145Z,7.18
2022-10-02T06:12:46.231Z,7.18
2022-10-02T06:14:50.570Z,7.18
2022-10-02T06:16:47.664Z,7.18
2022-10-02T06:18:46.495Z,7.18
2022-10-02T06:20:49.039Z,7.18
2022-10-02T06:22:47.135Z,7.18
2022-10-02T06:24:46.770Z,7.18
2022-10-02T06:26:47.814Z,7.18
2022-10-02T06:28:46.606Z,7.18
2022-10-02T06:30:46.650Z,7.18
2022-10-02T06:32:46.934Z,7.18
2022-10-02T06:34:48.140Z,7.18
2022-10-02T06:36:47.051Z,7.18
2022-10-02T06:38:46.382Z,7.18
2022-10-02T06:40:46.846Z,7.18
2022-10-02T06:42:47.048Z,7.18
2022-10-02T06:44:46.944Z,7.18
2022-10-02T06:46:51.192Z,7.18
2022-10-02T06:48:47.159Z,7.18
2022-10-02T06:50:46.490Z,7.18
2022-10-02T06:52:49.711Z,7.18
2022-10-02T06:54:46.751Z,7.18
2022-10-02T06:56:47.409Z,7.18
2022-10-02T06:58:47.088Z,7.18
2022-10-02T07:00:49.886Z,87.67
2022-10-02T07:02:46.856Z,22.84
2022-10-02T07:04:47.150Z,22.84
2022-10-02T07:06:46.880Z,22.84
2022-10-02T07:08:46.723Z,22.84
2022-10-02T07:10:46.424Z,22.84
2022-10-02T07:12:46.822Z,22.84
2022-10-02T07:14:46.543Z,22.84
2022-10-02T07:16:47.699Z,22.84
2022-10-02T07:18:46.288Z,22.84
2022-10-02T07:20:46.335Z,22.84
2022-10-02T07:23:19.205Z,22.84
2022-10-02T07:24:47.784Z,22.84
2022-10-02T07:26:47.656Z,22.84
2022-10-02T07:28:46.831Z,22.84
2022-10-02T07:30:46.418Z,22.84
2022-10-02T07:32:47.260Z,22.84
2022-10-02T07:34:46.692Z,22.84
2022-10-02T07:36:46.964Z,22.84
2022-10-02T07:38:46.590Z,22.84
2022-10-02T07:40:46.797Z,22.84
2022-10-02T07:42:46.521Z,22.84
2022-10-02T07:44:46.760Z,22.84
2022-10-02T07:46:47.763Z,22.84
2022-10-02T07:48:46.488Z,22.84
2022-10-02T07:50:46.436Z,22.84
2022-10-02T07:52:46.539Z,22.84
2022-10-02T07:54:46.739Z,22.84
2022-10-02T07:56:46.718Z,22.84
2022-10-02T07:58:46.362Z,22.84
2022-10-02T08:00:49.407Z,22.84
2022-10-02T08:02:47.124Z,22.84
2022-10-02T08:04:48.744Z,22.84
2022-10-02T08:06:47.186Z,44.19
2022-10-02T08:08:47.100Z,11.53
2022-10-02T08:10:46.376Z,11.53
2022-10-02T08:12:47.190Z,1.4
2022-10-02T08:14:47.163Z,1.28
2022-10-02T08:16:47.499Z,1.28
2022-10-02T08:19:18.473Z,0.95
2022-10-02T08:20:51.967Z,0.95
2022-10-02T08:22:46.843Z,0.95
2022-10-02T08:24:46.979Z,0.84
2022-10-02T08:26:47.581Z,0.79
2022-10-02T08:28:46.843Z,0.79
2022-10-02T08:30:46.764Z,0.74
2022-10-02T08:32:46.707Z,0.74
2022-10-02T08:34:47.167Z,0.74
2022-10-02T08:36:47.158Z,0.74
2022-10-02T08:38:46.645Z,0.74
2022-10-02T08:40:47.267Z,0.74
2022-10-02T08:42:47.146Z,0.74
2022-10-02T08:44:47.941Z,0.74
2022-10-02T08:46:47.519Z,0.74
2022-10-02T08:48:46.954Z,0.74
2022-10-02T08:50:46.374Z,0.74
2022-10-02T08:52:47.251Z,0.74
2022-10-02T08:54:46.539Z,0.74
2022-10-02T08:56:53.627Z,0.68
2022-10-02T08:58:46.633Z,0.68
2022-10-02T09:00:49.869Z,0.68
2022-10-02T09:02:47.524Z,0.68
2022-10-02T09:04:46.730Z,0.68
2022-10-02T09:06:47.646Z,0.68
2022-10-02T09:08:46.425Z,0.68
2022-10-02T09:10:46.633Z,0.68
2022-10-02T09:12:47.166Z,0.68
2022-10-02T09:14:47.100Z,0.68
2022-10-02T09:16:47.505Z,0.68
2022-10-02T09:18:46.655Z,0.68
2022-10-02T09:20:47.055Z,0.68
2022-10-02T09:22:46.657Z,0.68
2022-10-02T09:24:46.805Z,0.68
2022-10-02T09:26:47.282Z,0.68
2022-10-02T09:28:47.047Z,0.68
2022-10-02T09:30:47.227Z,0.68
2022-10-02T09:32:46.748Z,0.68
2022-10-02T09:34:46.315Z,0.68
2022-10-02T09:36:47.521Z,0.68
2022-10-02T09:38:50.551Z,0.68
2022-10-02T09:40:46.873Z,0.68
2022-10-02T09:42:46.584Z,0.68
2022-10-02T09:44:46.371Z,0.68
2022-10-02T09:46:47.907Z,0.68
2022-10-02T09:48:46.366Z,0.68
2022-10-02T09:50:48.163Z,0.68
2022-10-02T09:52:53.891Z,0.68
2022-10-02T09:54:46.793Z,0.68
2022-10-02T09:56:48.789Z,0.68
2022-10-02T09:58:47.208Z,0.68
2022-10-02T10:00:50.686Z,0.68
2022-10-02T10:02:48.813Z,0.68
2022-10-02T10:05:16.094Z,0.68
2022-10-02T10:06:46.828Z,0.68
2022-10-02T10:08:46.890Z,0.68
2022-10-02T10:10:46.886Z,0.68
2022-10-02T10:12:47.252Z,0.68
2022-10-02T10:14:47.333Z,0.68
2022-10-02T10:16:47.164Z,0.68
2022-10-02T10:18:47.028Z,0.68
2022-10-02T10:20:46.803Z,0.68
2022-10-02T10:22:46.369Z,0.68
2022-10-02T10:24:46.533Z,0.68
2022-10-02T10:26:47.044Z,0.68
2022-10-02T10:28:46.815Z,0.68
2022-10-02T10:30:47.040Z,0.68
2022-10-02T10:32:46.813Z,0.68
2022-10-02T10:34:47.099Z,0.68
2022-10-02T10:36:47.107Z,0.68
2022-10-02T10:38:46.758Z,0.68
2022-10-02T10:40:46.756Z,0.68
2022-10-02T10:43:08.504Z,0.68
2022-10-02T10:44:46.617Z,0.68
2022-10-02T10:46:47.485Z,0.68
2022-10-02T10:48:49.699Z,0.68
2022-10-02T10:50:47.384Z,0.68
2022-10-02T10:52:46.645Z,0.68
2022-10-02T10:54:47.532Z,0.68
2022-10-02T10:56:46.633Z,0.68
2022-10-02T10:58:47.231Z,0.68
2022-10-02T11:00:49.104Z,0.68
2022-10-02T11:02:47.239Z,0.68
2022-10-02T11:04:46.963Z,0.68
2022-10-02T11:06:46.915Z,0.68
2022-10-02T11:08:47.597Z,0.68
2022-10-02T11:10:46.905Z,0.68
2022-10-02T11:12:49.522Z,0.68
2022-10-02T11:14:47.708Z,0.68
2022-10-02T11:16:47.919Z,0.68
2022-10-02T11:18:46.942Z,0.68
2022-10-02T11:20:47.032Z,0.68
2022-10-02T11:22:47.194Z,0.68
2022-10-02T11:24:47.350Z,0.68
2022-10-02T11:26:46.465Z,0.68
2022-10-02T11:28:47.681Z,0.68
2022-10-02T11:30:52.922Z,0.68
2022-10-02T11:32:47.998Z,0.68
2022-10-02T11:34:46.498Z,0.68
2022-10-02T11:36:47.959Z,0.68
2022-10-02T11:38:49.407Z,0.68
2022-10-02T11:40:47.067Z,0.68
2022-10-02T11:42:46.495Z,0.68
2022-10-02T11:44:46.770Z,0.68
2022-10-02T11:46:47.540Z,0.68
2022-10-02T11:48:47.138Z,0.68
2022-10-02T11:50:46.745Z,0.68
2022-10-02T11:52:48.476Z,0.68
2022-10-02T11:54:47.069Z,0.68
2022-10-02T11:56:46.874Z,0.68
2022-10-02T11:58:46.538Z,0.68
2022-10-02T12:00:52.117Z,0.68
2022-10-02T12:02:50.934Z,0.68
2022-10-02T12:04:46.496Z,0.68
2022-10-02T12:06:46.479Z,0.68
2022-10-02T12:08:46.875Z,0.68
2022-10-02T12:10:46.651Z,0.68
2022-10-02T12:12:50.601Z,0.68
2022-10-02T12:14:46.929Z,0.68
2022-10-02T12:16:47.083Z,0.68
2022-10-02T12:18:46.876Z,0.68
2022-10-02T12:20:46.644Z,0.74
2022-10-02T12:22:47.281Z,0.74
2022-10-02T12:24:48.599Z,0.74
2022-10-02T12:26:46.888Z,0.68
2022-10-02T12:28:47.303Z,0.68
2022-10-02T12:30:46.499Z,0.68
2022-10-02T12:32:47.694Z,0.68
2022-10-02T12:34:46.957Z,0.68
2022-10-02T12:36:47.343Z,0.68
2022-10-02T12:38:47.985Z,0.68
2022-10-02T12:40:47.318Z,0.68
2022-10-02T12:42:46.465Z,0.68
2022-10-02T12:44:47.139Z,0.74
2022-10-02T12:46:46.536Z,0.74
2022-10-02T12:48:46.288Z,0.74
2022-10-02T12:50:47.316Z,0.74
2022-10-02T12:52:46.947Z,0.74
2022-10-02T12:54:46.478Z,0.74
2022-10-02T12:56:47.036Z,0.74
2022-10-02T12:58:46.734Z,0.74
2022-10-02T13:00:49.744Z,0.74
2022-10-02T13:03:19.333Z,0.74
2022-10-02T13:04:47.437Z,0.74
2022-10-02T13:06:47.597Z,0.74
2022-10-02T13:08:46.517Z,0.74
2022-10-02T13:10:49.210Z,0.74
2022-10-02T13:12:48.698Z,0.74
2022-10-02T13:14:46.811Z,0.74
2022-10-02T13:16:46.861Z,0.74
2022-10-02T13:18:47.945Z,0.74
2022-10-02T13:20:48.266Z,0.74
2022-10-02T13:22:46.956Z,0.74
2022-10-02T13:24:50.844Z,0.74
2022-10-02T13:26:48.975Z,0.74
2022-10-02T13:28:52.441Z,0.74
2022-10-02T13:30:52.216Z,0.74
2022-10-02T13:32:55.468Z,0.74
2022-10-02T13:34:50.453Z,0.74
2022-10-02T13:36:46.775Z,0.74
2022-10-02T13:38:47.331Z,0.74
2022-10-02T13:40:46.758Z,0.74
2022-10-02T13:42:47.320Z,0.74
2022-10-02T13:44:50.568Z,0.74
2022-10-02T13:46:47.757Z,0.74
2022-10-02T13:48:47.561Z,0.74
2022-10-02T13:50:51.676Z,0.74
2022-10-02T13:52:46.420Z,0.74
2022-10-02T13:54:46.506Z,0.74
2022-10-02T13:56:49.975Z,0.74
2022-10-02T13:58:47.250Z,0.74
2022-10-02T14:00:56.173Z,0.74
2022-10-02T14:02:47.635Z,0.74
2022-10-02T14:04:49.781Z,0.74
2022-10-02T14:06:47.262Z,0.74
2022-10-02T14:08:47.896Z,0.74
2022-10-02T14:10:47.598Z,0.74
2022-10-02T14:12:47.019Z,0.74
2022-10-02T14:14:49.788Z,0.74
2022-10-02T14:16:47.317Z,0.74
2022-10-02T14:18:47.190Z,0.74
2022-10-02T14:20:48.455Z,0.74
2022-10-02T14:22:47.882Z,0.74
2022-10-02T14:24:48.746Z,0.74
2022-10-02T14:26:50.800Z,0.74
2022-10-02T14:28:48.836Z,0.74
2022-10-02T14:31:03.022Z,0.74
2022-10-02T14:32:48.399Z,0.74
2022-10-02T14:34:47.245Z,0.74
2022-10-02T14:36:46.590Z,0.74
2022-10-02T14:38:49.014Z,0.74
2022-10-02T14:40:47.682Z,0.74
2022-10-02T14:42:46.699Z,0.74
2022-10-02T14:44:47.756Z,0.74
2022-10-02T14:46:47.352Z,0.74
2022-10-02T14:48:48.330Z,0.74
2022-10-02T14:50:47.073Z,0.74
2022-10-02T14:52:48.745Z,0.74
2022-10-02T14:54:46.975Z,0.74
2022-10-02T14:56:47.063Z,0.74
2022-10-02T14:58:46.665Z,0.74
2022-10-02T15:00:49.831Z,0.74
2022-10-02T15:02:47.185Z,0.74
2022-10-02T15:04:47.204Z,0.74
2022-10-02T15:06:47.018Z,0.74
2022-10-02T15:08:46.382Z,0.74
2022-10-02T15:10:47.463Z,0.74
2022-10-02T15:12:46.570Z,0.74
2022-10-02T15:14:46.668Z,0.74
2022-10-02T15:16:46.856Z,0.74
2022-10-02T15:18:46.582Z,0.74
2022-10-02T15:20:47.276Z,0.74
2022-10-02T15:22:46.911Z,0.74
2022-10-02T15:24:47.074Z,0.74
2022-10-02T15:26:47.149Z,0.74
2022-10-02T15:29:11.413Z,0.74
2022-10-02T15:30:46.446Z,0.74
2022-10-02T15:32:47.085Z,0.74
2022-10-02T15:34:46.713Z,0.74
2022-10-02T15:36:46.202Z,0.74
2022-10-02T15:38:47.025Z,0.74
2022-10-02T15:40:47.218Z,0.74
2022-10-02T15:42:49.940Z,0.74
2022-10-02T15:44:46.453Z,0.79
2022-10-02T15:46:47.686Z,0.79
2022-10-02T15:48:50.284Z,0.79
2022-10-02T15:50:47.168Z,0.74
2022-10-02T15:52:47.049Z,0.74
2022-10-02T15:54:46.235Z,0.74
2022-10-02T15:56:47.244Z,0.74
2022-10-02T15:58:47.264Z,0.74
2022-10-02T16:00:48.964Z,0.74
2022-10-02T16:02:47.014Z,0.74
2022-10-02T16:04:47.155Z,0.74
2022-10-02T16:06:47.045Z,0.74
2022-10-02T16:08:46.964Z,0.79
2022-10-02T16:10:46.587Z,0.79
2022-10-02T16:12:46.675Z,0.79
2022-10-02T16:14:46.875Z,0.74
2022-10-02T16:16:48.648Z,0.74
2022-10-02T16:18:46.445Z,0.74
2022-10-02T16:20:46.366Z,0.74
2022-10-02T16:22:51.773Z,0.74
2022-10-02T16:24:46.804Z,0.74
2022-10-02T16:26:47.727Z,0.74
2022-10-02T16:28:46.853Z,0.74
2022-10-02T16:30:46.626Z,0.74
2022-10-02T16:32:46.900Z,0.74
2022-10-02T16:34:47.071Z,0.74
2022-10-02T16:36:47.571Z,0.74
2022-10-02T16:38:47.084Z,0.74
2022-10-02T16:40:46.457Z,0.74
2022-10-02T16:42:46.820Z,0.74
2022-10-02T16:44:46.430Z,0.74
2022-10-02T16:46:47.217Z,0.74
2022-10-02T16:48:46.943Z,0.74
2022-10-02T16:50:52.934Z,0.74
2022-10-02T16:52:46.743Z,0.74
2022-10-02T16:54:46.992Z,0.74
2022-10-02T16:56:47.245Z,0.74
2022-10-02T16:58:46.588Z,0.74
2022-10-02T17:00:51.105Z,0.74
2022-10-02T17:03:03.827Z,0.74
2022-10-02T17:04:46.795Z,0.74
2022-10-02T17:06:47.937Z,0.74
2022-10-02T17:08:46.964Z,0.74
2022-10-02T17:10:52.724Z,0.74
2022-10-02T17:12:47.417Z,0.74
2022-10-02T17:14:47.368Z,0.74
2022-10-02T17:16:52.508Z,0.74
2022-10-02T17:18:46.845Z,0.74
2022-10-02T17:20:47.248Z,0.74
2022-10-02T17:22:49.862Z,0.74
2022-10-02T17:24:46.590Z,0.74
2022-10-02T17:26:47.147Z,0.74
2022-10-02T17:28:48.065Z,0.74
2022-10-02T17:30:47.252Z,0.74
2022-10-02T17:32:46.502Z,0.74
2022-10-02T17:34:47.768Z,0.74
2022-10-02T17:36:48.160Z,0.74
2022-10-02T17:38:47.098Z,0.74
2022-10-02T17:40:48.649Z,0.74
2022-10-02T17:42:46.747Z,0.74
2022-10-02T17:44:47.119Z,0.74
2022-10-02T17:46:47.578Z,0.74
2022-10-02T17:48:47.216Z,0.74
2022-10-02T17:50:46.953Z,0.68
2022-10-02T17:52:47.915Z,0.68
2022-10-02T17:54:46.802Z,0.68
2022-10-02T17:56:46.816Z,0.74
2022-10-02T17:58:47.025Z,0.74
2022-10-02T18:00:52.709Z,0.74
2022-10-02T18:02:46.747Z,0.68
2022-10-02T18:04:46.864Z,0.68
2022-10-02T18:06:46.668Z,0.68
2022-10-02T18:08:53.018Z,0.74
2022-10-02T18:10:46.946Z,0.74
2022-10-02T18:12:48.737Z,0.74
2022-10-02T18:14:47.118Z,0.68
2022-10-02T18:16:47.880Z,0.68
2022-10-02T18:18:47.180Z,0.68
2022-10-02T18:20:47.053Z,0.74
2022-10-02T18:22:47.379Z,0.74
2022-10-02T18:24:46.999Z,0.74
2022-10-02T18:26:53.360Z,0.68
2022-10-02T18:28:47.764Z,0.68
2022-10-02T18:30:47.067Z,0.68
2022-10-02T18:32:48.197Z,0.68
2022-10-02T18:34:52.796Z,0.68
2022-10-02T18:36:48.725Z,0.68
2022-10-02T18:38:47.715Z,0.74
2022-10-02T18:40:53.279Z,0.74
2022-10-02T18:42:47.505Z,0.74
2022-10-02T18:44:47.272Z,0.68
2022-10-02T18:46:47.184Z,0.68
2022-10-02T18:48:53.040Z,0.68
2022-10-02T18:50:46.951Z,0.68
2022-10-02T18:52:46.970Z,0.68
2022-10-02T18:54:47.324Z,0.68
2022-10-02T18:56:49.351Z,0.74
2022-10-02T18:58:47.405Z,0.74
2022-10-02T19:00:50.138Z,0.74
2022-10-02T19:02:47.009Z,0.68
2022-10-02T19:04:46.323Z,0.68
2022-10-02T19:06:49.241Z,0.68
2022-10-02T19:08:46.827Z,0.74
2022-10-02T19:10:47.251Z,0.74
2022-10-02T19:12:46.630Z,0.74
2022-10-02T19:14:46.799Z,0.74
2022-10-02T19:16:46.810Z,0.74
2022-10-02T19:18:46.325Z,0.74
2022-10-02T19:20:47.169Z,0.74
2022-10-02T19:22:46.323Z,0.74
2022-10-02T19:24:46.691Z,0.74
2022-10-02T19:26:46.826Z,0.74
2022-10-02T19:28:47.168Z,0.74
2022-10-02T19:30:46.961Z,0.74
2022-10-02T19:32:46.889Z,0.74
2022-10-02T19:34:46.872Z,0.74
2022-10-02T19:36:46.563Z,0.74
2022-10-02T19:38:47.180Z,0.74
2022-10-02T19:40:47.084Z,0.74
2022-10-02T19:42:46.922Z,0.74
2022-10-02T19:44:46.336Z,0.79
2022-10-02T19:46:46.887Z,0.79
2022-10-02T19:48:47.043Z,0.79
2022-10-02T19:50:46.929Z,0.79
2022-10-02T19:52:46.420Z,0.79
2022-10-02T19:54:46.830Z,0.79
2022-10-02T19:56:47.230Z,0.79
2022-10-02T19:58:46.419Z,0.79
2022-10-02T20:00:51.767Z,0.79
2022-10-02T20:02:46.788Z,0.79
2022-10-02T20:04:47.184Z,0.79
2022-10-02T20:06:47.118Z,0.79
2022-10-02T20:08:52.096Z,0.79
2022-10-02T20:10:46.577Z,0.79
2022-10-02T20:12:46.944Z,0.79
2022-10-02T20:14:46.779Z,0.79
2022-10-02T20:16:47.348Z,0.79
2022-10-02T20:18:47.128Z,0.79
2022-10-02T20:20:46.982Z,0.79
2022-10-02T20:22:46.269Z,0.79
2022-10-02T20:24:46.374Z,0.79
2022-10-02T20:26:47.092Z,0.79
2022-10-02T20:28:46.960Z,0.79
2022-10-02T20:30:46.805Z,0.79
2022-10-02T20:32:46.493Z,0.79
2022-10-02T20:34:47.171Z,0.79
2022-10-02T20:36:47.027Z,0.79
2022-10-02T20:38:47.037Z,0.79
2022-10-02T20:40:47.825Z,0.79
2022-10-02T20:42:46.781Z,0.79
2022-10-02T20:44:46.744Z,0.79
2022-10-02T20:46:47.039Z,0.79
2022-10-02T20:49:18.003Z,0.79
2022-10-02T20:50:46.843Z,0.79
2022-10-02T20:52:46.943Z,0.79
2022-10-02T20:54:46.503Z,0.79
2022-10-02T20:56:47.018Z,0.79
2022-10-02T20:58:47.074Z,0.79
2022-10-02T21:00:49.531Z,0.79
2022-10-02T21:02:46.725Z,0.79
2022-10-02T21:04:47.125Z,0.79
2022-10-02T21:06:47.685Z,0.79
2022-10-02T21:08:46.784Z,0.79
2022-10-02T21:10:46.832Z,0.79
2022-10-02T21:12:46.830Z,0.79
2022-10-02T21:14:46.481Z,0.79
2022-10-02T21:16:48.594Z,0.79
2022-10-02T21:18:46.248Z,0.79
2022-10-02T21:21:13.545Z,0.79
2022-10-02T21:22:46.439Z,0.79
2022-10-02T21:24:46.690Z,0.79
2022-10-02T21:26:47.503Z,0.79
2022-10-02T21:28:46.767Z,0.79
2022-10-02T21:30:47.628Z,0.79
2022-10-02T21:32:46.769Z,0.79
2022-10-02T21:34:46.587Z,0.79
2022-10-02T21:36:47.272Z,0.79
2022-10-02T21:38:46.466Z,0.79
2022-10-02T21:40:46.803Z,0.79
2022-10-02T21:42:46.974Z,0.79
2022-10-02T21:44:47.296Z,0.79
2022-10-02T21:46:47.175Z,0.79
2022-10-02T21:48:46.673Z,0.79
2022-10-02T21:50:46.649Z,0.79
2022-10-02T21:52:46.434Z,0.79
2022-10-02T21:54:46.562Z,0.79
2022-10-02T21:56:49.678Z,0.79
2022-10-02T21:58:46.730Z,0.79
2022-10-02T22:00:56.520Z,0.79
2022-10-02T22:02:54.078Z,0.79
2022-10-02T22:04:47.056Z,0.79
2022-10-02T22:06:50.125Z,0.79
2022-10-02T22:08:46.412Z,0.79
2022-10-02T22:10:46.611Z,0.79
2022-10-02T22:12:46.256Z,0.79
2022-10-02T22:14:46.782Z,0.79
2022-10-02T22:16:47.721Z,0.79
2022-10-02T22:18:46.272Z,0.79
2022-10-02T22:20:46.329Z,0.79
2022-10-02T22:22:46.911Z,0.79
2022-10-02T22:24:46.557Z,0.79
2022-10-02T22:26:46.703Z,0.79
2022-10-02T22:28:47.126Z,0.79
2022-10-02T22:30:46.967Z,0.79
2022-10-02T22:32:47.094Z,0.79
2022-10-02T22:34:46.590Z,0.79
2022-10-02T22:36:46.451Z,0.79
2022-10-02T22:38:46.763Z,0.79
2022-10-02T22:40:46.996Z,0.79
2022-10-02T22:42:47.102Z,0.79
2022-10-02T22:44:47.166Z,0.79
2022-10-02T22:46:52.681Z,0.79
2022-10-02T22:48:46.641Z,0.79
2022-10-02T22:50:46.518Z,0.79
2022-10-02T22:52:47.332Z,0.79
2022-10-02T22:54:47.241Z,0.79
2022-10-02T22:56:47.143Z,0.79
2022-10-02T22:58:46.481Z,0.79
2022-10-02T23:00:52.310Z,0.79
2022-10-02T23:02:47.530Z,0.79
2022-10-02T23:04:47.358Z,0.79
2022-10-02T23:06:48.757Z,0.79
2022-10-02T23:08:46.729Z,0.79
2022-10-02T23:10:47.068Z,0.79
2022-10-02T23:12:51.184Z,0.79
2022-10-02T23:14:47.091Z,0.79
2022-10-02T23:16:46.792Z,0.79
2022-10-02T23:18:47.086Z,0.79
2022-10-02T23:20:47.238Z,0.79
2022-10-02T23:22:46.189Z,0.79
2022-10-02T23:24:46.995Z,0.79
2022-10-02T23:26:47.125Z,0.79
2022-10-02T23:28:47.518Z,0.79
2022-10-02T23:30:46.478Z,0.79
2022-10-02T23:32:47.041Z,0.79
2022-10-02T23:34:46.787Z,0.79
2022-10-02T23:36:47.179Z,0.79
2022-10-02T23:38:46.649Z,0.79
2022-10-02T23:40:46.662Z,0.79
2022-10-02T23:42:47.047Z,0.79
2022-10-02T23:44:46.455Z,0.79
2022-10-02T23:46:47.259Z,0.79
2022-10-02T23:48:46.779Z,0.79
2022-10-02T23:50:46.304Z,0.79
2022-10-02T23:52:46.948Z,0.79
2022-10-02T23:54:46.713Z,0.79
2022-10-02T23:56:46.951Z,0.74
2022-10-02T23:58:47.447Z,0.74
